Long Island Mac Arthur Airport Islip US
ICAO: KISP
IATA: ISP
Category: Medium
Scheduled Services: Yes

Elevation: 99 ft
TransAlt. 18000 ft.

Airport Communications:
NEW YORK APP/DEP:118
ATIS:128.45
CLNC DEL:121.85
CTAF:119.3
GND:135.3
GUARD OPS:45
NEW YORK RDO:122.6
TWR:119.3
UNICOM:122.95

KISP Zoom In..

Runways:

(A) RW 06 length 7006 ft width 150 ft
ILS 108.30 / hdg 59

(B) RW 10 length 5034 ft width 150 ft
---- / hdg 104

(C) RW 15L length 3175 ft width 75 ft
---- / hdg 149

(D) RW 15R length 5186 ft width 150 ft
---- / hdg 149

(E) RW 24 length 7006 ft width 150 ft
ILS 108.30 / hdg 239

(F) RW 28 length 5034 ft width 150 ft
---- / hdg 284

(G) RW 33L length 5186 ft width 150 ft
---- / hdg 329

(H) RW 33R length 3175 ft width 75 ft
---- / hdg 329

Location; KISP
Day. 23 / Time. 15.21 Zulu
* Altimeter: 29.72
* Temperature: 13° c. 55.4°f.
* Wind from: 170° Speed 20 kn with Gusts up to 26 kn.
Dewpoint: 12° c.
Visibility: 3 Statute Miles.
Clouds: Overcast 300 ft.
Conditions: Light Rain.Conditions: Mist.

KISP 231521Z 17020G26KT 3SM -RA BR OVC003 13/12 A2972 RMK AO2 PK WND 17026/1520 SFC VIS 4 P0003 T01280117


Wind From 170°
Speed 20 kn.

YouTube Music Video
 
jpsmedia.com for Web Design  worldairports.se 2018   terms of use